createdAt,value
2022-08-25T00:00:14.982Z,0.00
2022-08-25T00:01:14.992Z,0.00
2022-08-25T00:02:15.001Z,0.00
2022-08-25T00:03:14.971Z,0.00
2022-08-25T00:04:14.959Z,0.00
2022-08-25T00:05:14.991Z,0.00
2022-08-25T00:06:14.943Z,0.00
2022-08-25T00:07:18.696Z,0.00
2022-08-25T00:08:14.899Z,0.00
2022-08-25T00:09:14.920Z,0.00
2022-08-25T00:10:14.867Z,0.00
2022-08-25T00:11:14.886Z,0.00
2022-08-25T00:12:14.865Z,0.00
2022-08-25T00:13:14.865Z,0.00
2022-08-25T00:14:14.837Z,0.00
2022-08-25T00:15:14.865Z,0.00
2022-08-25T00:16:14.901Z,0.00
2022-08-25T00:17:14.820Z,0.00
2022-08-25T00:18:19.708Z,0.00
2022-08-25T00:19:14.807Z,0.00
2022-08-25T00:20:14.796Z,0.00
2022-08-25T00:21:14.830Z,0.00
2022-08-25T00:22:14.771Z,0.00
2022-08-25T00:23:14.752Z,0.00
2022-08-25T00:24:14.749Z,0.00
2022-08-25T00:25:14.770Z,0.00
2022-08-25T00:26:14.753Z,0.00
2022-08-25T00:27:14.759Z,0.00
2022-08-25T00:28:14.722Z,0.00
2022-08-25T00:29:14.729Z,0.00
2022-08-25T00:30:16.092Z,0.00
2022-08-25T00:31:14.742Z,0.00
2022-08-25T00:32:14.694Z,0.00
2022-08-25T00:33:14.677Z,0.00
2022-08-25T00:34:14.645Z,0.00
2022-08-25T00:35:14.641Z,0.00
2022-08-25T00:36:14.633Z,0.00
2022-08-25T00:37:14.662Z,0.00
2022-08-25T00:38:14.604Z,0.00
2022-08-25T00:39:14.593Z,0.00
2022-08-25T00:40:14.698Z,0.00
2022-08-25T00:41:14.594Z,0.00
2022-08-25T00:42:16.093Z,0.00
2022-08-25T00:43:14.594Z,0.00
2022-08-25T00:44:14.534Z,0.00
2022-08-25T00:45:14.533Z,0.00
2022-08-25T00:46:14.600Z,0.00
2022-08-25T00:47:14.530Z,0.00
2022-08-25T00:48:14.498Z,0.00
2022-08-25T00:49:17.961Z,0.00
2022-08-25T00:50:14.494Z,0.00
2022-08-25T00:51:14.478Z,0.00
2022-08-25T00:52:14.468Z,0.00
2022-08-25T00:53:14.457Z,0.00
2022-08-25T00:54:14.459Z,0.00
2022-08-25T00:55:14.458Z,0.00
2022-08-25T00:56:14.429Z,0.00
2022-08-25T00:57:14.425Z,0.00
2022-08-25T00:58:14.407Z,0.00
2022-08-25T00:59:14.398Z,0.00
2022-08-25T01:00:14.366Z,0.00
2022-08-25T01:01:14.401Z,0.00
2022-08-25T01:02:14.417Z,0.00
2022-08-25T01:03:14.360Z,0.00
2022-08-25T01:04:14.338Z,0.00
2022-08-25T01:05:14.333Z,0.00
2022-08-25T01:06:14.307Z,0.00
2022-08-25T01:07:15.489Z,0.00
2022-08-25T01:08:16.423Z,0.00
2022-08-25T01:09:14.296Z,0.00
2022-08-25T01:10:14.283Z,0.00
2022-08-25T01:11:14.263Z,0.00
2022-08-25T01:12:14.287Z,0.00
2022-08-25T01:13:16.250Z,0.00
2022-08-25T01:14:14.234Z,0.00
2022-08-25T01:15:14.224Z,0.00
2022-08-25T01:16:14.313Z,0.00
2022-08-25T01:17:14.218Z,0.00
2022-08-25T01:18:14.210Z,0.00
2022-08-25T01:19:15.487Z,0.00
2022-08-25T01:20:14.188Z,0.00
2022-08-25T01:21:14.171Z,0.00
2022-08-25T01:22:14.154Z,0.00
2022-08-25T01:23:14.194Z,0.00
2022-08-25T01:24:14.147Z,0.00
2022-08-25T01:25:14.124Z,0.00
2022-08-25T01:26:14.098Z,0.00
2022-08-25T01:27:14.111Z,0.00
2022-08-25T01:28:14.086Z,0.00
2022-08-25T01:29:14.095Z,0.00
2022-08-25T01:30:14.055Z,0.00
2022-08-25T01:31:23.997Z,0.00
2022-08-25T01:32:14.044Z,0.00
2022-08-25T01:33:14.065Z,0.00
2022-08-25T01:34:14.028Z,0.00
2022-08-25T01:35:14.047Z,0.00
2022-08-25T01:36:13.996Z,0.00
2022-08-25T01:37:13.993Z,0.00
2022-08-25T01:38:13.991Z,0.00
2022-08-25T01:39:13.992Z,0.00
2022-08-25T01:40:14.005Z,0.00
2022-08-25T01:41:13.966Z,0.00
2022-08-25T01:42:13.935Z,0.00
2022-08-25T01:43:13.959Z,0.00
2022-08-25T01:44:16.126Z,0.00
2022-08-25T01:45:13.904Z,0.00
2022-08-25T01:46:13.962Z,0.00
2022-08-25T01:47:13.898Z,0.00
2022-08-25T01:48:13.876Z,0.00
2022-08-25T01:49:13.888Z,0.00
2022-08-25T01:50:13.875Z,0.00
2022-08-25T01:51:13.841Z,0.00
2022-08-25T01:52:13.827Z,0.00
2022-08-25T01:53:13.804Z,0.00
2022-08-25T01:54:13.837Z,0.00
2022-08-25T01:55:13.814Z,0.00
2022-08-25T01:56:13.804Z,0.00
2022-08-25T01:57:13.769Z,0.00
2022-08-25T01:58:13.770Z,0.00
2022-08-25T01:59:13.766Z,0.00
2022-08-25T02:00:13.772Z,0.00
2022-08-25T02:01:13.838Z,0.00
2022-08-25T02:02:13.770Z,0.00
2022-08-25T02:03:15.775Z,0.00
2022-08-25T02:04:13.745Z,0.00
2022-08-25T02:05:13.688Z,0.00
2022-08-25T02:06:13.683Z,0.00
2022-08-25T02:07:13.694Z,0.00
2022-08-25T02:08:13.673Z,0.00
2022-08-25T02:09:13.648Z,0.00
2022-08-25T02:10:13.677Z,0.00
2022-08-25T02:11:13.641Z,0.00
2022-08-25T02:12:13.637Z,0.00
2022-08-25T02:13:13.600Z,0.00
2022-08-25T02:14:13.618Z,0.00
2022-08-25T02:15:13.598Z,0.00
2022-08-25T02:16:13.634Z,0.00
2022-08-25T02:17:13.575Z,0.00
2022-08-25T02:18:13.609Z,0.00
2022-08-25T02:19:13.549Z,0.00
2022-08-25T02:20:13.542Z,0.00
2022-08-25T02:21:13.567Z,0.00
2022-08-25T02:22:13.519Z,0.00
2022-08-25T02:23:13.509Z,0.00
2022-08-25T02:24:13.509Z,0.00
2022-08-25T02:25:13.519Z,0.00
2022-08-25T02:26:13.486Z,0.00
2022-08-25T02:27:13.466Z,0.00
2022-08-25T02:28:13.507Z,0.00
2022-08-25T02:29:13.431Z,0.00
2022-08-25T02:30:13.430Z,0.00
2022-08-25T02:31:13.482Z,0.00
2022-08-25T02:32:13.427Z,0.00
2022-08-25T02:33:13.401Z,0.00
2022-08-25T02:34:13.414Z,0.00
2022-08-25T02:35:13.378Z,0.00
2022-08-25T02:36:13.408Z,0.00
2022-08-25T02:37:13.356Z,0.00
2022-08-25T02:38:13.366Z,0.00
2022-08-25T02:39:13.335Z,0.00
2022-08-25T02:40:13.424Z,0.00
2022-08-25T02:41:13.309Z,0.00
2022-08-25T02:42:13.326Z,0.00
2022-08-25T02:43:13.283Z,0.00
2022-08-25T02:44:13.300Z,0.00
2022-08-25T02:45:13.277Z,0.00
2022-08-25T02:46:13.343Z,0.00
2022-08-25T02:47:13.255Z,0.00
2022-08-25T02:48:13.260Z,0.00
2022-08-25T02:49:13.244Z,0.00
2022-08-25T02:50:13.252Z,0.00
2022-08-25T02:51:13.228Z,0.00
2022-08-25T02:52:13.216Z,0.00
2022-08-25T02:53:13.176Z,0.00
2022-08-25T02:54:13.200Z,0.00
2022-08-25T02:55:13.182Z,0.00
2022-08-25T02:56:13.159Z,0.00
2022-08-25T02:57:13.144Z,0.00
2022-08-25T02:58:13.145Z,0.00
2022-08-25T02:59:13.125Z,0.00
2022-08-25T03:00:13.132Z,0.00
2022-08-25T03:01:13.188Z,0.00
2022-08-25T03:02:13.109Z,0.00
2022-08-25T03:03:13.087Z,0.00
2022-08-25T03:04:13.083Z,0.00
2022-08-25T03:05:13.178Z,0.00
2022-08-25T03:06:13.096Z,0.00
2022-08-25T03:07:13.051Z,0.00
2022-08-25T03:08:13.072Z,0.00
2022-08-25T03:09:13.035Z,0.00
2022-08-25T03:10:13.025Z,0.00
2022-08-25T03:11:13.032Z,0.00
2022-08-25T03:12:13.008Z,0.00
2022-08-25T03:13:12.980Z,0.00
2022-08-25T03:14:12.973Z,0.00
2022-08-25T03:15:13.337Z,0.00
2022-08-25T03:16:13.041Z,0.00
2022-08-25T03:17:12.961Z,0.00
2022-08-25T03:18:13.978Z,0.00
2022-08-25T03:19:12.971Z,0.00
2022-08-25T03:20:12.906Z,0.00
2022-08-25T03:21:12.932Z,0.00
2022-08-25T03:22:12.889Z,0.00
2022-08-25T03:23:12.885Z,0.00
2022-08-25T03:24:12.867Z,0.00
2022-08-25T03:25:12.902Z,0.00
2022-08-25T03:26:12.876Z,0.00
2022-08-25T03:27:12.824Z,0.00
2022-08-25T03:28:12.832Z,0.00
2022-08-25T03:29:12.808Z,0.00
2022-08-25T03:30:12.833Z,0.00
2022-08-25T03:31:12.815Z,0.00
2022-08-25T03:32:12.862Z,0.00
2022-08-25T03:33:12.777Z,0.00
2022-08-25T03:34:12.779Z,0.00
2022-08-25T03:35:12.757Z,0.00
2022-08-25T03:36:12.769Z,0.00
2022-08-25T03:37:12.746Z,0.00
2022-08-25T03:38:12.731Z,0.00
2022-08-25T03:39:12.719Z,0.00
2022-08-25T03:40:15.362Z,0.00
2022-08-25T03:41:12.698Z,0.00
2022-08-25T03:42:12.717Z,0.00
2022-08-25T03:43:12.675Z,0.00
2022-08-25T03:44:12.672Z,0.00
2022-08-25T03:45:12.652Z,0.00
2022-08-25T03:46:12.702Z,0.00
2022-08-25T03:47:12.663Z,0.00
2022-08-25T03:48:12.608Z,0.00
2022-08-25T03:49:12.613Z,0.00
2022-08-25T03:50:12.601Z,0.00
2022-08-25T03:51:12.530Z,1.00
2022-08-25T03:52:12.583Z,0.00
2022-08-25T03:53:12.549Z,1.00
2022-08-25T03:54:12.521Z,1.00
2022-08-25T03:55:12.502Z,1.00
2022-08-25T03:56:12.478Z,1.00
2022-08-25T03:57:12.464Z,2.00
2022-08-25T03:58:12.486Z,2.00
2022-08-25T03:59:12.462Z,1.00
2022-08-25T04:00:12.452Z,1.00
2022-08-25T04:01:12.453Z,2.00
2022-08-25T04:02:12.459Z,1.00
2022-08-25T04:03:12.406Z,4.00
2022-08-25T04:04:12.393Z,2.00
2022-08-25T04:05:12.417Z,5.00
2022-08-25T04:06:12.378Z,4.00
2022-08-25T04:07:12.389Z,2.00
2022-08-25T04:08:12.353Z,4.00
2022-08-25T04:09:12.358Z,3.00
2022-08-25T04:10:12.350Z,5.00
2022-08-25T04:11:12.347Z,10.00
2022-08-25T04:12:12.305Z,10.00
2022-08-25T04:13:12.321Z,12.00
2022-08-25T04:14:16.509Z,11.00
2022-08-25T04:15:12.314Z,14.00
2022-08-25T04:16:12.321Z,17.00
2022-08-25T04:17:12.251Z,20.00
2022-08-25T04:18:12.264Z,22.00
2022-08-25T04:19:12.243Z,26.00
2022-08-25T04:20:14.190Z,26.00
2022-08-25T04:21:12.223Z,33.00
2022-08-25T04:22:13.322Z,38.00
2022-08-25T04:23:12.216Z,47.00
2022-08-25T04:24:12.199Z,50.00
2022-08-25T04:25:12.196Z,52.00
2022-08-25T04:26:12.182Z,59.00
2022-08-25T04:27:12.152Z,65.00
2022-08-25T04:28:12.166Z,69.00
2022-08-25T04:29:12.128Z,78.00
2022-08-25T04:30:12.176Z,87.00
2022-08-25T04:31:12.121Z,94.00
2022-08-25T04:32:12.159Z,99.00
2022-08-25T04:33:12.109Z,111.00
2022-08-25T04:34:29.297Z,118.00
2022-08-25T04:35:12.071Z,130.00
2022-08-25T04:36:12.577Z,142.00
2022-08-25T04:37:12.052Z,151.00
2022-08-25T04:38:12.043Z,166.00
2022-08-25T04:39:12.019Z,180.00
2022-08-25T04:40:12.080Z,195.00
2022-08-25T04:41:12.021Z,209.00
2022-08-25T04:42:12.019Z,223.00
2022-08-25T04:43:12.012Z,239.00
2022-08-25T04:44:11.981Z,255.00
2022-08-25T04:45:12.045Z,272.00
2022-08-25T04:46:12.023Z,290.00
2022-08-25T04:47:11.987Z,311.00
2022-08-25T04:48:11.949Z,327.00
2022-08-25T04:49:11.924Z,345.00
2022-08-25T04:50:11.928Z,364.00
2022-08-25T04:51:11.955Z,384.00
2022-08-25T04:52:12.967Z,403.00
2022-08-25T04:53:11.889Z,424.00
2022-08-25T04:54:11.875Z,449.00
2022-08-25T04:55:11.857Z,465.00
2022-08-25T04:56:11.861Z,487.00
2022-08-25T04:57:11.861Z,511.00
2022-08-25T04:58:14.562Z,533.00
2022-08-25T04:59:11.845Z,557.00
2022-08-25T05:00:11.834Z,574.00
2022-08-25T05:01:11.865Z,598.00
2022-08-25T05:02:11.812Z,622.00
2022-08-25T05:03:11.795Z,645.00
2022-08-25T05:04:27.604Z,667.00
2022-08-25T05:05:11.779Z,689.00
2022-08-25T05:06:15.697Z,716.00
2022-08-25T05:07:11.736Z,740.00
2022-08-25T05:08:11.802Z,768.00
2022-08-25T05:09:11.721Z,791.00
2022-08-25T05:10:11.717Z,816.00
2022-08-25T05:11:11.696Z,840.00
2022-08-25T05:12:11.700Z,857.00
2022-08-25T05:13:11.687Z,871.00
2022-08-25T05:14:11.706Z,885.00
2022-08-25T05:15:11.657Z,898.00
2022-08-25T05:16:11.762Z,907.00
2022-08-25T05:17:11.628Z,920.00
2022-08-25T05:18:11.630Z,931.00
2022-08-25T05:19:11.626Z,942.00
2022-08-25T05:20:11.604Z,954.00
2022-08-25T05:21:11.596Z,964.00
2022-08-25T05:22:11.599Z,975.00
2022-08-25T05:23:11.597Z,984.00
2022-08-25T05:24:11.577Z,994.00
2022-08-25T05:25:11.548Z,1004.00
2022-08-25T05:26:11.567Z,1011.00
2022-08-25T05:27:11.538Z,1022.00
2022-08-25T05:28:11.553Z,1034.00
2022-08-25T05:29:11.533Z,1048.00
2022-08-25T05:30:11.513Z,1057.00
2022-08-25T05:31:11.590Z,1070.00
2022-08-25T05:32:11.545Z,1081.00
2022-08-25T05:33:11.467Z,1092.00
2022-08-25T05:34:11.477Z,1101.00
2022-08-25T05:35:11.454Z,1110.00
2022-08-25T05:36:11.448Z,1116.00
2022-08-25T05:37:12.261Z,1126.00
2022-08-25T05:38:15.393Z,1134.00
2022-08-25T05:39:11.430Z,1141.00
2022-08-25T05:40:11.482Z,1149.00
2022-08-25T05:41:11.394Z,1159.00
2022-08-25T05:42:11.385Z,1164.00
2022-08-25T05:43:11.389Z,1173.00
2022-08-25T05:44:11.375Z,1182.00
2022-08-25T05:45:14.849Z,1192.00
2022-08-25T05:46:11.408Z,1200.00
2022-08-25T05:47:11.366Z,1209.00
2022-08-25T05:48:11.328Z,1218.00
2022-08-25T05:49:11.305Z,1230.00
2022-08-25T05:50:11.338Z,1241.00
2022-08-25T05:51:11.286Z,1253.00
2022-08-25T05:52:14.307Z,1267.00
2022-08-25T05:53:11.276Z,1278.00
2022-08-25T05:54:11.267Z,1288.00
2022-08-25T05:55:11.238Z,1296.00
2022-08-25T05:56:11.271Z,1304.00
2022-08-25T05:57:11.228Z,1311.00
2022-08-25T05:58:11.250Z,1315.00
2022-08-25T05:59:11.211Z,1321.00
2022-08-25T06:00:11.228Z,1321.00
2022-08-25T06:01:11.212Z,1326.00
2022-08-25T06:02:11.160Z,1328.00
2022-08-25T06:03:11.240Z,1327.00
2022-08-25T06:04:11.161Z,1330.00
2022-08-25T06:05:11.161Z,1327.00
2022-08-25T06:06:11.131Z,1327.00
2022-08-25T06:07:11.145Z,1325.00
2022-08-25T06:08:11.112Z,1320.00
2022-08-25T06:09:11.101Z,1321.00
2022-08-25T06:10:11.100Z,1321.00
2022-08-25T06:11:11.089Z,1322.00
2022-08-25T06:12:11.102Z,1327.00
2022-08-25T06:13:11.114Z,1335.00
2022-08-25T06:14:11.064Z,1338.00
2022-08-25T06:15:11.077Z,1347.00
2022-08-25T06:16:11.092Z,1350.00
2022-08-25T06:17:11.031Z,1362.00
2022-08-25T06:18:11.005Z,1374.00
2022-08-25T06:19:11.073Z,1383.00
2022-08-25T06:20:10.989Z,1398.00
2022-08-25T06:21:10.984Z,1406.00
2022-08-25T06:22:10.983Z,1421.00
2022-08-25T06:23:10.947Z,1437.00
2022-08-25T06:24:14.833Z,1454.00
2022-08-25T06:25:10.941Z,1473.00
2022-08-25T06:26:10.931Z,1492.00
2022-08-25T06:27:10.933Z,1514.00
2022-08-25T06:28:10.957Z,1536.00
2022-08-25T06:29:10.922Z,1553.00
2022-08-25T06:30:10.926Z,1576.00
2022-08-25T06:31:10.916Z,1596.00
2022-08-25T06:32:10.848Z,1615.00
2022-08-25T06:33:10.860Z,1633.00
2022-08-25T06:34:10.863Z,1639.00
2022-08-25T06:35:10.859Z,1636.00
2022-08-25T06:36:10.877Z,1629.00
2022-08-25T06:37:10.818Z,1643.00
2022-08-25T06:38:10.803Z,1640.00
2022-08-25T06:39:10.810Z,1640.00
2022-08-25T06:40:10.837Z,1641.00
2022-08-25T06:41:10.776Z,1643.00
2022-08-25T06:42:10.761Z,1645.00
2022-08-25T06:43:10.763Z,1640.00
2022-08-25T06:44:10.754Z,1652.00
2022-08-25T06:45:10.760Z,1655.00
2022-08-25T06:46:10.725Z,1644.00
2022-08-25T06:47:10.818Z,1640.00
2022-08-25T06:48:10.688Z,1639.00
2022-08-25T06:49:10.692Z,1637.00
2022-08-25T06:50:10.699Z,1640.00
2022-08-25T06:51:10.679Z,1638.00
2022-08-25T06:52:10.662Z,1643.00
2022-08-25T06:53:10.688Z,1689.00
2022-08-25T06:54:10.629Z,1732.00
2022-08-25T06:55:10.653Z,1641.00
2022-08-25T06:56:10.636Z,1649.00
2022-08-25T06:57:10.612Z,1645.00
2022-08-25T06:58:11.331Z,1645.00
2022-08-25T06:59:10.609Z,1648.00
2022-08-25T07:00:10.602Z,1654.00
2022-08-25T07:01:15.687Z,1663.00
2022-08-25T07:02:10.661Z,1661.00
2022-08-25T07:03:10.614Z,1666.00
2022-08-25T07:04:12.852Z,1675.00
2022-08-25T07:05:13.450Z,1667.00
2022-08-25T07:06:10.528Z,1695.00
2022-08-25T07:07:10.511Z,1706.00
2022-08-25T07:08:10.508Z,1702.00
2022-08-25T07:09:10.492Z,1569.00
2022-08-25T07:10:10.471Z,1794.00
2022-08-25T07:11:16.395Z,1797.00
2022-08-25T07:12:10.514Z,1721.00
2022-08-25T07:13:10.461Z,1723.00
2022-08-25T07:14:10.420Z,1522.00
2022-08-25T07:15:19.846Z,2522.00
2022-08-25T07:16:10.500Z,1833.00
2022-08-25T07:17:12.035Z,1196.00
2022-08-25T07:18:10.385Z,3762.00
2022-08-25T07:19:10.388Z,2219.00
2022-08-25T07:20:10.381Z,2131.00
2022-08-25T07:21:10.422Z,1667.00
2022-08-25T07:22:10.381Z,1923.00
2022-08-25T07:23:10.357Z,2973.00
2022-08-25T07:24:10.321Z,1913.00
2022-08-25T07:25:10.328Z,1979.00
2022-08-25T07:26:33.655Z,918.00
2022-08-25T07:27:10.340Z,5740.00
2022-08-25T07:28:10.297Z,2177.00
2022-08-25T07:29:10.308Z,2333.00
2022-08-25T07:30:11.316Z,1331.00
2022-08-25T07:31:10.305Z,7803.00
2022-08-25T07:32:10.253Z,20814.00
2022-08-25T07:33:10.467Z,18982.00
2022-08-25T07:34:10.219Z,12505.00
2022-08-25T07:35:10.220Z,5227.00
2022-08-25T07:36:10.213Z,12771.00
2022-08-25T07:37:10.246Z,6768.00
2022-08-25T07:38:13.038Z,4609.00
2022-08-25T07:39:10.181Z,14785.00
2022-08-25T07:40:10.211Z,2377.00
2022-08-25T07:41:10.181Z,1336.00
2022-08-25T07:42:11.991Z,2744.00
2022-08-25T07:43:10.192Z,16110.00
2022-08-25T07:44:10.128Z,19518.00
2022-08-25T07:45:10.117Z,7307.00
2022-08-25T07:46:10.146Z,11183.00
2022-08-25T07:47:10.123Z,9870.00
2022-08-25T07:48:10.077Z,11791.00
2022-08-25T07:49:16.598Z,27787.00
2022-08-25T07:50:10.079Z,23957.00
2022-08-25T07:51:10.072Z,19755.00
2022-08-25T07:52:10.054Z,3646.00
2022-08-25T07:53:10.414Z,22732.00
2022-08-25T07:54:10.025Z,21624.00
2022-08-25T07:55:11.082Z,6561.00
2022-08-25T07:56:09.990Z,22498.00
2022-08-25T07:57:10.055Z,12019.00
2022-08-25T07:58:10.053Z,15196.00
2022-08-25T07:59:09.971Z,13666.00
2022-08-25T08:00:09.976Z,13347.00
2022-08-25T08:01:10.030Z,3698.00
2022-08-25T08:02:18.270Z,26993.00
2022-08-25T08:03:12.808Z,25479.00
2022-08-25T08:04:09.989Z,14255.00
2022-08-25T08:05:09.927Z,6289.00
2022-08-25T08:06:09.943Z,26528.00
2022-08-25T08:07:12.064Z,27468.00
2022-08-25T08:08:09.967Z,37360.00
2022-08-25T08:09:09.895Z,42456.00
2022-08-25T08:10:33.294Z,35086.00
2022-08-25T08:11:09.881Z,35980.00
2022-08-25T08:12:09.908Z,20805.00
2022-08-25T08:13:10.164Z,2592.00
2022-08-25T08:14:09.834Z,24276.00
2022-08-25T08:15:10.373Z,16583.00
2022-08-25T08:16:09.838Z,1200.00
2022-08-25T08:17:09.815Z,11827.00
2022-08-25T08:18:09.773Z,7480.00
2022-08-25T08:19:09.842Z,5684.00
2022-08-25T08:20:09.795Z,3252.00
2022-08-25T08:21:09.786Z,3776.00
2022-08-25T08:22:09.798Z,2229.00
2022-08-25T08:23:09.778Z,2096.00
2022-08-25T08:24:19.526Z,2154.00
2022-08-25T08:25:10.604Z,2170.00
2022-08-25T08:26:09.746Z,31213.00
2022-08-25T08:27:09.774Z,22500.00
2022-08-25T08:28:10.001Z,1223.00
2022-08-25T08:29:09.712Z,2980.00
2022-08-25T08:30:09.682Z,7655.00
2022-08-25T08:31:10.737Z,1131.00
2022-08-25T08:32:09.665Z,6723.00
2022-08-25T08:33:11.771Z,1595.00
2022-08-25T08:34:09.649Z,4650.00
2022-08-25T08:35:09.631Z,2928.00
2022-08-25T08:36:09.705Z,1297.00
2022-08-25T08:37:10.510Z,8424.00
2022-08-25T08:38:14.531Z,3234.00
2022-08-25T08:39:09.643Z,1498.00
2022-08-25T08:40:09.630Z,6096.00
2022-08-25T08:41:09.646Z,27737.00
2022-08-25T08:42:11.370Z,15580.00
2022-08-25T08:43:18.322Z,1846.00
2022-08-25T08:44:09.536Z,20506.00
2022-08-25T08:45:09.887Z,5510.00
2022-08-25T08:46:09.555Z,22843.00
2022-08-25T08:47:09.711Z,4448.00
2022-08-25T08:48:09.527Z,2339.00
2022-08-25T08:49:09.504Z,2344.00
2022-08-25T08:50:09.471Z,2951.00
2022-08-25T08:51:09.809Z,2905.00
2022-08-25T08:52:09.452Z,2783.00
2022-08-25T08:53:09.444Z,2183.00
2022-08-25T08:54:15.225Z,2459.00
2022-08-25T08:55:09.606Z,2446.00
2022-08-25T08:56:11.695Z,2416.00
2022-08-25T08:57:09.408Z,2522.00
2022-08-25T08:58:09.489Z,2028.00
2022-08-25T08:59:09.413Z,2415.00
2022-08-25T09:00:09.379Z,2103.00
2022-08-25T09:01:09.357Z,2216.00
2022-08-25T09:02:13.675Z,2172.00
2022-08-25T09:03:09.363Z,2159.00
2022-08-25T09:04:09.341Z,2108.00
2022-08-25T09:05:09.320Z,2137.00
2022-08-25T09:06:09.330Z,2039.00
2022-08-25T09:07:09.343Z,2072.00
2022-08-25T09:08:09.431Z,2039.00
2022-08-25T09:09:09.289Z,2001.00
2022-08-25T09:10:09.308Z,1966.00
2022-08-25T09:11:10.172Z,1959.00
2022-08-25T09:12:09.272Z,1873.00
2022-08-25T09:13:12.273Z,1915.00
2022-08-25T09:14:09.256Z,1874.00
2022-08-25T09:15:12.807Z,1866.00
2022-08-25T09:16:09.231Z,1814.00
2022-08-25T09:17:09.270Z,1848.00
2022-08-25T09:18:09.636Z,1787.00
2022-08-25T09:19:09.211Z,1854.00
2022-08-25T09:20:18.803Z,1774.00
2022-08-25T09:21:09.237Z,1820.00
2022-08-25T09:22:33.598Z,1793.00
2022-08-25T09:23:09.180Z,1777.00
2022-08-25T09:24:09.115Z,1799.00
2022-08-25T09:25:09.172Z,1826.00
2022-08-25T09:26:09.161Z,1821.00
2022-08-25T09:27:09.165Z,1826.00
2022-08-25T09:28:09.160Z,1809.00
2022-08-25T09:29:16.413Z,1769.00
2022-08-25T09:30:10.047Z,1826.00
2022-08-25T09:31:09.208Z,1845.00
2022-08-25T09:32:09.200Z,1784.00
2022-08-25T09:33:09.076Z,1783.00
2022-08-25T09:34:09.034Z,1775.00
2022-08-25T09:35:09.029Z,1822.00
2022-08-25T09:36:09.200Z,1807.00
2022-08-25T09:37:09.038Z,1804.00
2022-08-25T09:38:09.180Z,1778.00
2022-08-25T09:39:10.061Z,1841.00
2022-08-25T09:40:09.088Z,1810.00
2022-08-25T09:41:08.990Z,1781.00
2022-08-25T09:42:09.119Z,1782.00
2022-08-25T09:43:09.000Z,1827.00
2022-08-25T09:44:08.968Z,1797.00
2022-08-25T09:45:08.940Z,1785.00
2022-08-25T09:46:08.961Z,1706.00
2022-08-25T09:47:08.920Z,1840.00
2022-08-25T09:48:08.888Z,1715.00
2022-08-25T09:49:08.928Z,1729.00
2022-08-25T09:50:08.933Z,1771.00
2022-08-25T09:51:08.927Z,1826.00
2022-08-25T09:52:08.857Z,1794.00
2022-08-25T09:53:17.055Z,1809.00
2022-08-25T09:54:10.704Z,1776.00
2022-08-25T09:55:08.853Z,1783.00
2022-08-25T09:56:08.832Z,1700.00
2022-08-25T09:57:08.939Z,1818.00
2022-08-25T09:58:09.622Z,1830.00
2022-08-25T09:59:08.822Z,1777.00
2022-08-25T10:00:08.776Z,1796.00
2022-08-25T10:01:09.188Z,1781.00
2022-08-25T10:02:09.083Z,1821.00
2022-08-25T10:03:09.326Z,1790.00
2022-08-25T10:04:19.050Z,1835.00
2022-08-25T10:05:08.910Z,1907.00
2022-08-25T10:06:13.143Z,1677.00
2022-08-25T10:07:09.548Z,1778.00
2022-08-25T10:08:08.894Z,1662.00
2022-08-25T10:09:08.877Z,1808.00
2022-08-25T10:10:10.028Z,1786.00
2022-08-25T10:11:08.940Z,1842.00
2022-08-25T10:12:08.729Z,1815.00
2022-08-25T10:13:08.995Z,1837.00
2022-08-25T10:14:08.653Z,1871.00
2022-08-25T10:15:08.813Z,1716.00
2022-08-25T10:16:20.442Z,1883.00
2022-08-25T10:17:12.486Z,1841.00
2022-08-25T10:18:08.641Z,1830.00
2022-08-25T10:19:08.994Z,1822.00
2022-08-25T10:20:08.586Z,1761.00
2022-08-25T10:21:08.630Z,1855.00
2022-08-25T10:22:08.654Z,1701.00
2022-08-25T10:23:08.531Z,1828.00
2022-08-25T10:24:08.562Z,1795.00
2022-08-25T10:25:08.536Z,1823.00
2022-08-25T10:26:08.574Z,1811.00
2022-08-25T10:27:08.486Z,1856.00
2022-08-25T10:28:08.504Z,1917.00
2022-08-25T10:29:08.540Z,1851.00
2022-08-25T10:30:08.529Z,1829.00
2022-08-25T10:31:09.667Z,1915.00
2022-08-25T10:32:12.018Z,1789.00
2022-08-25T10:33:08.695Z,1862.00
2022-08-25T10:34:08.449Z,1877.00
2022-08-25T10:35:08.458Z,1928.00
2022-08-25T10:36:08.445Z,1870.00
2022-08-25T10:37:09.329Z,1891.00
2022-08-25T10:38:08.439Z,1935.00
2022-08-25T10:39:34.538Z,1913.00
2022-08-25T10:40:08.445Z,1892.00
2022-08-25T10:41:08.416Z,1836.00
2022-08-25T10:42:08.367Z,1902.00
2022-08-25T10:43:08.747Z,1874.00
2022-08-25T10:44:08.401Z,1874.00
2022-08-25T10:45:09.924Z,1939.00
2022-08-25T10:46:08.588Z,1888.00
2022-08-25T10:47:08.302Z,1770.00
2022-08-25T10:48:08.459Z,1897.00
2022-08-25T10:49:08.292Z,1929.00
2022-08-25T10:50:08.298Z,1815.00
2022-08-25T10:51:08.293Z,1865.00
2022-08-25T10:52:08.336Z,1892.00
2022-08-25T10:53:09.148Z,1933.00
2022-08-25T10:54:08.253Z,1879.00
2022-08-25T10:55:08.230Z,1932.00
2022-08-25T10:56:08.235Z,1933.00
2022-08-25T10:57:08.331Z,1820.00
2022-08-25T10:58:08.202Z,1929.00
2022-08-25T10:59:09.142Z,1841.00
2022-08-25T11:00:08.193Z,1857.00
2022-08-25T11:01:08.262Z,1786.00
2022-08-25T11:02:08.270Z,1850.00
2022-08-25T11:03:08.348Z,1866.00
2022-08-25T11:04:08.247Z,1859.00
2022-08-25T11:05:08.171Z,1816.00
2022-08-25T11:06:08.142Z,1864.00
2022-08-25T11:07:08.170Z,1855.00
2022-08-25T11:08:08.109Z,1876.00
2022-08-25T11:09:08.093Z,1771.00
2022-08-25T11:10:08.103Z,1813.00
2022-08-25T11:11:08.083Z,1869.00
2022-08-25T11:12:08.051Z,1928.00
2022-08-25T11:13:08.065Z,1774.00
2022-08-25T11:14:09.395Z,1868.00
2022-08-25T11:15:08.465Z,1867.00
2022-08-25T11:16:23.404Z,1819.00
2022-08-25T11:17:08.077Z,1891.00
2022-08-25T11:18:14.406Z,1887.00
2022-08-25T11:19:07.971Z,1844.00
2022-08-25T11:20:07.985Z,1853.00
2022-08-25T11:21:07.978Z,1821.00
2022-08-25T11:22:07.973Z,1823.00
2022-08-25T11:23:07.934Z,1810.00
2022-08-25T11:24:07.987Z,1872.00
2022-08-25T11:25:07.908Z,1868.00
2022-08-25T11:26:07.992Z,1774.00
2022-08-25T11:27:07.920Z,1865.00
2022-08-25T11:28:07.989Z,1902.00
2022-08-25T11:29:11.550Z,1880.00
2022-08-25T11:30:07.880Z,1840.00
2022-08-25T11:31:07.907Z,1860.00
2022-08-25T11:32:07.873Z,1922.00
2022-08-25T11:33:08.252Z,1777.00
2022-08-25T11:34:07.878Z,1821.00
2022-08-25T11:35:07.819Z,1854.00
2022-08-25T11:36:07.814Z,1875.00
2022-08-25T11:37:07.813Z,1833.00
2022-08-25T11:38:08.090Z,1877.00
2022-08-25T11:39:07.812Z,1845.00
2022-08-25T11:40:08.768Z,1849.00
2022-08-25T11:41:11.215Z,1865.00
2022-08-25T11:42:07.820Z,1762.00
2022-08-25T11:43:08.200Z,1860.00
2022-08-25T11:44:07.738Z,1827.00
2022-08-25T11:45:07.758Z,1802.00
2022-08-25T11:46:07.750Z,1832.00
2022-08-25T11:47:09.037Z,1847.00
2022-08-25T11:48:07.854Z,1845.00
2022-08-25T11:49:07.690Z,1877.00
2022-08-25T11:50:07.682Z,1829.00
2022-08-25T11:51:07.706Z,1957.00
2022-08-25T11:52:07.671Z,1830.00
2022-08-25T11:53:11.249Z,1849.00
2022-08-25T11:54:07.654Z,1879.00
2022-08-25T11:55:07.681Z,1845.00
2022-08-25T11:56:07.686Z,1856.00
2022-08-25T11:57:07.622Z,1805.00
2022-08-25T11:58:07.941Z,1846.00
2022-08-25T11:59:07.613Z,1792.00
2022-08-25T12:00:07.658Z,1855.00
2022-08-25T12:01:07.562Z,1815.00
2022-08-25T12:02:07.585Z,1877.00
2022-08-25T12:03:07.552Z,1751.00
2022-08-25T12:04:07.580Z,1768.00
2022-08-25T12:05:07.658Z,1764.00
2022-08-25T12:06:07.544Z,1833.00
2022-08-25T12:07:07.512Z,1825.00
2022-08-25T12:08:07.527Z,1791.00
2022-08-25T12:09:07.487Z,1837.00
2022-08-25T12:10:07.522Z,1826.00
2022-08-25T12:11:11.059Z,1863.00
2022-08-25T12:12:07.456Z,1812.00
2022-08-25T12:13:08.122Z,1809.00
2022-08-25T12:14:07.451Z,1814.00
2022-08-25T12:15:07.451Z,1836.00
2022-08-25T12:16:07.456Z,1816.00
2022-08-25T12:17:07.448Z,1863.00
2022-08-25T12:18:07.591Z,1832.00
2022-08-25T12:19:07.400Z,1897.00
2022-08-25T12:20:07.433Z,1830.00
2022-08-25T12:21:07.465Z,1907.00
2022-08-25T12:22:07.395Z,1823.00
2022-08-25T12:23:07.420Z,1879.00
2022-08-25T12:24:07.357Z,1871.00
2022-08-25T12:25:07.389Z,1764.00
2022-08-25T12:26:07.372Z,1785.00
2022-08-25T12:27:07.392Z,1870.00
2022-08-25T12:28:09.155Z,1638.00
2022-08-25T12:29:07.691Z,2000.00
2022-08-25T12:30:07.473Z,1756.00